Time;durP1;ratioP1;P1;durP2;ratioP2;P2;SDS_P1;SDS_P2;PMS_P1;PMS_P2;Temp;Humidity;BMP_temperature;BMP_pressure;BME280_temperature;BME280_humidity;BME280_pressure;Samples;Min_cycle;Max_cycle;Signal;HPM_P1;HPM_P2
2021/08/26 00:00:52;;;;;;;4.53;1.90;;;18.60;55.10;;;;;;2369949;53;21037;-69
2021/08/26 00:06:04;;;;;;;4.55;2.22;;;18.60;55.10;;;;;;2353147;53;20903;-66
2021/08/26 00:08:32;;;;;;;3.90;1.95;;;18.60;55.10;;;;;;2364380;53;20946;-70
2021/08/26 00:11:01;;;;;;;4.20;1.95;;;18.70;55.20;;;;;;2344037;53;20915;-67
2021/08/26 00:13:27;;;;;;;6.15;2.20;;;18.70;55.20;;;;;;2564562;52;20914;-68
2021/08/26 00:15:55;;;;;;;4.82;1.85;;;18.70;55.10;;;;;;2560348;52;20922;-69
2021/08/26 00:18:23;;;;;;;3.35;1.65;;;18.70;55.10;;;;;;2370336;53;21497;-67
2021/08/26 00:20:52;;;;;;;3.83;1.85;;;18.70;55.10;;;;;;2370656;53;20961;-68
2021/08/26 00:23:24;;;;;;;3.33;1.65;;;18.70;55.10;;;;;;2370835;53;20914;-67
2021/08/26 00:25:51;;;;;;;5.22;2.40;;;18.70;55.10;;;;;;2346666;53;21427;-67
2021/08/26 00:28:17;;;;;;;4.82;2.30;;;18.60;55.00;;;;;;2370365;53;20933;-67
2021/08/26 00:30:44;;;;;;;3.92;1.90;;;18.60;55.00;;;;;;2370697;53;21005;-68
2021/08/26 00:33:11;;;;;;;3.08;1.45;;;18.60;55.00;;;;;;2370635;53;20969;-68
2021/08/26 00:35:37;;;;;;;4.47;1.98;;;18.60;55.00;;;;;;2367152;53;20970;-68
2021/08/26 00:38:04;;;;;;;4.15;2.00;;;18.50;54.90;;;;;;2351292;53;20946;-67
2021/08/26 00:40:31;;;;;;;3.80;1.90;;;18.50;54.90;;;;;;2370631;53;20962;-68
2021/08/26 00:43:00;;;;;;;3.87;2.10;;;18.50;54.90;;;;;;2370845;53;20930;-67
2021/08/26 00:45:32;;;;;;;4.37;2.20;;;18.50;55.10;;;;;;2348740;52;22711;-68
2021/08/26 00:47:59;;;;;;;;;;;18.40;55.10;;;;;;2347292;54;21727;-67
2021/08/26 00:50:26;;;;;;;5.35;1.90;;;18.40;55.30;;;;;;2353455;53;20398;-69
2021/08/26 00:52:53;;;;;;;4.72;1.83;;;18.30;54.80;;;;;;2597278;52;20931;-68
2021/08/26 00:55:20;;;;;;;5.07;2.03;;;18.30;54.90;;;;;;2360809;53;20914;-68
2021/08/26 00:57:46;;;;;;;4.68;2.15;;;18.30;55.00;;;;;;2370911;53;21021;-68
2021/08/26 01:00:14;;;;;;;4.97;2.12;;;18.20;55.00;;;;;;2355218;53;20946;-66
2021/08/26 01:06:13;;;;;;;4.20;2.15;;;18.20;55.10;;;;;;2359000;53;20918;-67
2021/08/26 01:09:05;;;;;;;3.58;1.65;;;18.20;55.30;;;;;;2353204;53;21002;-67
2021/08/26 01:11:39;;;;;;;3.42;1.65;;;18.20;55.00;;;;;;2370594;53;21022;-66
2021/08/26 01:14:06;;;;;;;3.85;1.75;;;18.10;54.90;;;;;;2345695;52;20966;-67
2021/08/26 01:16:38;;;;;;;4.28;1.77;;;18.10;54.90;;;;;;2474694;53;20982;-66
2021/08/26 01:19:04;;;;;;;3.53;1.80;;;18.10;55.00;;;;;;2341736;53;20945;-66
2021/08/26 01:21:31;;;;;;;4.50;1.95;;;18.00;54.90;;;;;;2315394;53;21096;-68
2021/08/26 01:23:58;;;;;;;4.40;2.20;;;18.00;54.90;;;;;;2344502;53;21020;-67
2021/08/26 01:26:30;;;;;;;4.97;2.65;;;18.00;54.90;;;;;;2341753;53;20909;-68
2021/08/26 01:29:00;;;;;;;4.65;2.40;;;17.90;55.00;;;;;;2348538;53;20938;-66
2021/08/26 01:31:26;;;;;;;5.95;2.30;;;17.90;55.00;;;;;;2586201;52;20948;-68
2021/08/26 01:33:53;;;;;;;3.72;2.20;;;17.90;54.90;;;;;;2369958;53;20961;-67
2021/08/26 01:36:22;;;;;;;5.03;2.47;;;17.80;54.90;;;;;;2348629;53;21002;-68
2021/08/26 01:38:50;;;;;;;4.97;2.40;;;17.80;55.00;;;;;;2347939;53;20938;-68
2021/08/26 01:41:16;;;;;;;4.62;2.40;;;17.70;54.80;;;;;;2357484;53;20903;-68
2021/08/26 01:43:44;;;;;;;4.43;2.15;;;17.70;54.90;;;;;;2373782;53;20939;-66
2021/08/26 01:46:14;;;;;;;4.85;2.28;;;17.70;55.00;;;;;;2349997;53;21004;-67
2021/08/26 01:48:42;;;;;;;4.47;2.22;;;17.60;55.00;;;;;;2343487;53;20994;-68
2021/08/26 01:51:08;;;;;;;6.07;2.70;;;17.60;55.10;;;;;;2399782;53;20925;-68
2021/08/26 01:53:35;;;;;;;4.37;2.05;;;17.50;55.10;;;;;;2368723;53;20934;-67
2021/08/26 01:56:05;;;;;;;3.78;1.95;;;17.50;55.10;;;;;;2370873;53;20954;-67
2021/08/26 01:58:33;;;;;;;6.53;2.50;;;17.50;55.30;;;;;;2435598;52;20930;-68
2021/08/26 02:01:00;;;;;;;4.22;2.37;;;17.40;55.20;;;;;;2361134;53;21002;-66
2021/08/26 02:03:26;;;;;;;5.15;2.42;;;17.40;55.20;;;;;;2354254;53;20910;-68
2021/08/26 02:05:53;;;;;;;4.15;2.12;;;17.30;55.20;;;;;;2347047;53;21006;-69
2021/08/26 02:08:19;;;;;;;4.25;2.22;;;17.30;55.20;;;;;;2397653;52;20941;-67
2021/08/26 02:10:45;;;;;;;4.03;2.22;;;17.20;55.10;;;;;;2347587;53;20954;-66
2021/08/26 02:13:15;;;;;;;4.50;2.20;;;17.20;55.20;;;;;;2355169;53;21134;-67
2021/08/26 02:15:42;;;;;;;3.97;1.90;;;17.20;55.30;;;;;;2345435;53;20974;-68
2021/08/26 02:18:08;;;;;;;4.43;2.12;;;17.10;55.20;;;;;;2506570;52;21432;-67
2021/08/26 02:20:35;;;;;;;5.28;2.20;;;17.10;55.30;;;;;;2370268;53;20911;-69
2021/08/26 02:23:01;;;;;;;3.47;1.77;;;17.00;55.30;;;;;;2370620;53;21704;-69
2021/08/26 02:25:27;;;;;;;4.70;2.42;;;17.00;55.40;;;;;;2369819;53;20907;-67
2021/08/26 02:27:55;;;;;;;4.28;2.00;;;17.00;55.50;;;;;;2370577;53;20962;-69
2021/08/26 02:30:22;;;;;;;4.57;2.28;;;17.00;55.50;;;;;;2370416;53;20995;-67
2021/08/26 02:32:49;;;;;;;5.05;2.35;;;16.90;55.50;;;;;;2346639;54;21456;-68
2021/08/26 02:35:16;;;;;;;4.18;2.05;;;16.90;55.50;;;;;;2369524;53;20998;-67
2021/08/26 02:37:45;;;;;;;4.62;2.40;;;16.80;55.40;;;;;;2342027;53;21016;-67
2021/08/26 02:40:12;;;;;;;4.50;2.12;;;16.80;55.60;;;;;;2354871;53;20994;-66
2021/08/26 02:42:38;;;;;;;4.57;2.25;;;16.80;55.60;;;;;;2346267;53;20926;-68
2021/08/26 02:45:05;;;;;;;5.75;2.20;;;16.70;55.60;;;;;;2369483;53;20926;-67
2021/08/26 02:47:31;;;;;;;4.37;2.20;;;16.70;55.70;;;;;;2370474;53;21752;-68
2021/08/26 02:49:57;;;;;;;4.45;2.22;;;16.70;55.80;;;;;;2372074;53;21503;-69
2021/08/26 02:52:26;;;;;;;6.43;2.53;;;16.70;55.80;;;;;;2366933;53;21410;-68
2021/08/26 02:54:53;;;;;;;5.00;2.47;;;16.60;55.70;;;;;;2346662;54;20959;-69
2021/08/26 02:57:19;;;;;;;4.53;2.00;;;16.60;55.70;;;;;;2355078;53;20990;-69
2021/08/26 02:59:45;;;;;;;4.60;2.30;;;16.60;55.80;;;;;;2359321;53;20962;-67
2021/08/26 03:02:12;;;;;;;5.55;2.80;;;16.50;55.70;;;;;;2352136;53;21054;-67
2021/08/26 03:04:38;;;;;;;4.75;2.15;;;16.50;55.80;;;;;;2367425;53;20978;-68
2021/08/26 03:07:05;;;;;;;4.82;2.20;;;16.50;55.80;;;;;;2345978;53;21002;-66
2021/08/26 03:09:31;;;;;;;4.00;2.00;;;16.50;55.80;;;;;;2370443;53;21031;-68
2021/08/26 03:11:57;;;;;;;4.78;2.22;;;16.40;55.80;;;;;;2371299;53;20919;-67
2021/08/26 03:14:23;;;;;;;4.47;2.35;;;16.40;55.90;;;;;;2370123;53;20922;-67
2021/08/26 03:16:50;;;;;;;5.00;2.37;;;16.40;55.80;;;;;;2362051;53;20954;-69
2021/08/26 03:19:16;;;;;;;4.32;1.98;;;16.30;55.80;;;;;;2353857;53;20935;-68
2021/08/26 03:21:43;;;;;;;3.87;1.77;;;16.30;55.80;;;;;;2370719;53;20981;-69
2021/08/26 03:24:09;;;;;;;4.85;2.15;;;16.20;55.80;;;;;;2623124;52;20970;-68
2021/08/26 03:26:35;;;;;;;5.28;2.75;;;16.20;55.90;;;;;;2370279;53;20898;-66
2021/08/26 03:29:02;;;;;;;4.47;2.05;;;16.20;55.90;;;;;;2370501;53;20938;-69
2021/08/26 03:31:28;;;;;;;5.30;2.10;;;16.20;56.00;;;;;;2370799;53;20926;-66
2021/08/26 03:33:56;;;;;;;5.37;2.55;;;16.10;55.90;;;;;;2330197;55;20977;-66
2021/08/26 03:36:27;;;;;;;4.22;2.22;;;16.10;55.90;;;;;;2334996;53;20954;-66
2021/08/26 03:38:56;;;;;;;5.55;2.58;;;16.10;56.00;;;;;;2300973;55;21464;-68
2021/08/26 03:41:23;;;;;;;4.53;2.10;;;16.00;55.80;;;;;;2421979;52;20946;-69
2021/08/26 03:43:51;;;;;;;4.47;1.95;;;16.00;55.80;;;;;;2445845;53;21005;-67
2021/08/26 03:46:18;;;;;;;5.37;2.50;;;16.00;55.90;;;;;;2325877;54;21537;-69
2021/08/26 03:48:45;;;;;;;4.05;1.85;;;16.00;55.90;;;;;;2347723;53;20982;-67
2021/08/26 03:51:11;;;;;;;4.68;2.25;;;15.90;56.00;;;;;;2354822;53;21991;-66
2021/08/26 03:53:37;;;;;;;4.53;2.00;;;15.90;56.10;;;;;;2355461;53;20982;-66
2021/08/26 03:56:06;;;;;;;4.72;2.33;;;15.80;56.10;;;;;;2331876;53;21293;-67
2021/08/26 03:58:33;;;;;;;5.32;2.47;;;15.80;56.20;;;;;;2605357;52;20923;-67
2021/08/26 04:01:03;;;;;;;5.47;2.60;;;15.80;56.20;;;;;;2355864;53;20938;-68
2021/08/26 04:03:29;;;;;;;5.05;2.80;;;15.80;56.30;;;;;;2345457;53;20995;-69
2021/08/26 04:05:55;;;;;;;4.57;2.50;;;15.70;56.20;;;;;;2332728;53;20922;-68
2021/08/26 04:08:22;;;;;;;4.18;2.35;;;15.70;56.30;;;;;;2355630;53;20950;-69
2021/08/26 04:10:48;;;;;;;4.53;2.35;;;15.70;56.30;;;;;;2351504;53;20975;-67
2021/08/26 04:13:14;;;;;;;4.70;2.58;;;15.60;56.40;;;;;;2339744;53;20958;-68
2021/08/26 04:15:41;;;;;;;4.25;2.15;;;15.60;56.50;;;;;;2382807;53;21020;-67
2021/08/26 04:18:07;;;;;;;5.75;2.78;;;15.60;56.60;;;;;;2437977;52;21023;-69
2021/08/26 04:20:33;;;;;;;5.57;2.75;;;15.60;56.60;;;;;;2346912;53;21305;-68
2021/08/26 04:23:04;;;;;;;4.75;2.37;;;15.60;56.70;;;;;;2326505;53;21017;-66
2021/08/26 04:25:30;;;;;;;4.53;2.42;;;15.60;57.00;;;;;;2339904;53;21298;-68
2021/08/26 04:27:57;;;;;;;5.57;2.80;;;15.60;57.00;;;;;;2355764;53;21299;-67
2021/08/26 04:30:23;;;;;;;4.25;1.98;;;15.60;57.10;;;;;;2344443;53;21352;-67
2021/08/26 04:32:49;;;;;;;5.57;2.72;;;15.60;57.20;;;;;;2346795;53;20978;-68
2021/08/26 04:35:15;;;;;;;5.97;2.62;;;15.60;57.80;;;;;;2326489;53;22006;-66
2021/08/26 04:37:42;;;;;;;4.18;2.20;;;15.60;57.20;;;;;;2355865;53;21085;-68
2021/08/26 04:40:10;;;;;;;5.28;2.30;;;15.60;57.20;;;;;;2536055;52;21024;-69
2021/08/26 04:42:36;;;;;;;5.75;3.05;;;15.70;57.30;;;;;;2353775;53;21037;-68
2021/08/26 04:45:03;;;;;;;5.18;2.65;;;15.60;57.20;;;;;;2354821;53;21381;-66
2021/08/26 04:47:30;;;;;;;4.43;2.45;;;15.60;57.20;;;;;;2355774;53;20974;-68
2021/08/26 04:49:56;;;;;;;4.40;2.20;;;15.60;57.20;;;;;;2580210;52;21517;-67
2021/08/26 04:52:23;;;;;;;6.60;3.25;;;15.70;57.40;;;;;;2363823;52;20927;-66
2021/08/26 04:54:49;;;;;;;4.37;2.22;;;15.70;57.40;;;;;;2358593;53;20940;-68
2021/08/26 04:57:15;;;;;;;6.12;2.47;;;15.70;57.40;;;;;;2350805;53;20930;-67
2021/08/26 04:59:42;;;;;;;4.85;2.75;;;15.70;57.40;;;;;;2360240;53;21062;-67
2021/08/26 05:02:08;;;;;;;4.72;2.62;;;15.70;57.50;;;;;;2332104;53;20941;-66
2021/08/26 05:04:37;;;;;;;5.03;2.60;;;15.70;57.50;;;;;;2421789;52;20998;-68
2021/08/26 05:07:03;;;;;;;4.90;2.75;;;15.70;57.50;;;;;;2420820;52;22045;-67
2021/08/26 05:09:29;;;;;;;4.75;2.53;;;15.70;57.50;;;;;;2325285;53;20960;-66
2021/08/26 05:12:00;;;;;;;5.12;2.62;;;15.70;57.60;;;;;;2346057;53;20955;-69
2021/08/26 05:14:27;;;;;;;5.32;2.53;;;15.70;57.70;;;;;;2343079;53;20964;-67
2021/08/26 05:16:56;;;;;;;5.32;2.60;;;15.70;57.70;;;;;;2363023;53;20958;-68
2021/08/26 05:19:23;;;;;;;4.82;2.28;;;15.80;57.90;;;;;;2329375;53;21086;-68
2021/08/26 05:21:49;;;;;;;4.37;2.62;;;15.80;57.90;;;;;;2574175;52;20951;-67
2021/08/26 05:24:15;;;;;;;6.20;2.60;;;15.80;57.90;;;;;;2340466;53;20963;-66
2021/08/26 05:26:42;;;;;;;3.55;1.95;;;15.80;58.00;;;;;;2340803;53;20931;-66
2021/08/26 05:29:09;;;;;;;4.70;2.12;;;15.80;58.00;;;;;;2349237;53;22046;-68
2021/08/26 05:31:35;;;;;;;4.47;2.20;;;15.90;58.10;;;;;;2401314;53;20898;-68
2021/08/26 05:34:01;;;;;;;5.25;2.72;;;15.90;58.10;;;;;;2351537;53;21956;-69
2021/08/26 05:36:28;;;;;;;3.83;2.17;;;15.90;58.10;;;;;;2335427;53;20942;-68
2021/08/26 05:38:54;;;;;;;4.53;2.35;;;15.90;58.10;;;;;;2355677;53;21601;-65
2021/08/26 05:41:20;;;;;;;6.20;2.75;;;16.00;58.20;;;;;;2404085;52;20930;-67
2021/08/26 05:43:46;;;;;;;4.57;2.37;;;16.00;58.20;;;;;;2355764;53;20982;-66
2021/08/26 05:46:13;;;;;;;4.62;2.50;;;16.00;58.30;;;;;;2332175;53;20974;-66
2021/08/26 05:48:40;;;;;;;4.97;2.70;;;16.00;58.20;;;;;;2340325;53;21463;-67
2021/08/26 05:51:06;;;;;;;4.97;2.70;;;16.00;58.30;;;;;;2330159;53;20988;-68
2021/08/26 05:53:33;;;;;;;4.05;2.30;;;16.10;58.40;;;;;;2355347;53;20951;-68
2021/08/26 05:55:59;;;;;;;5.78;2.65;;;16.10;58.40;;;;;;2355602;53;20950;-69
2021/08/26 05:58:25;;;;;;;3.80;2.08;;;16.10;58.40;;;;;;2333631;53;20961;-67
2021/08/26 06:00:52;;;;;;;4.65;2.90;;;16.10;58.50;;;;;;2331021;53;20922;-67
2021/08/26 06:03:18;;;;;;;5.45;2.60;;;16.20;58.70;;;;;;2355645;53;20918;-69
2021/08/26 06:05:44;;;;;;;5.30;2.83;;;16.20;58.70;;;;;;2342565;53;21422;-69
2021/08/26 06:08:11;;;;;;;5.55;2.90;;;16.30;58.80;;;;;;2337642;53;21118;-68
2021/08/26 06:10:37;;;;;;;5.55;2.55;;;16.30;58.80;;;;;;2517364;52;21063;-67
2021/08/26 06:13:04;;;;;;;4.65;2.60;;;16.40;59.00;;;;;;2353370;53;22103;-67
2021/08/26 06:15:30;;;;;;;5.07;2.47;;;16.40;59.00;;;;;;2356521;53;20918;-68
2021/08/26 06:17:57;;;;;;;5.57;3.12;;;16.40;59.10;;;;;;2371558;53;21397;-69
2021/08/26 06:20:25;;;;;;;4.95;2.55;;;16.50;59.30;;;;;;2340056;53;20926;-68
2021/08/26 06:22:52;;;;;;;4.50;2.40;;;16.60;59.40;;;;;;2355622;53;21480;-68
2021/08/26 06:25:18;;;;;;;5.35;2.62;;;16.70;59.50;;;;;;2354490;53;20962;-69
2021/08/26 06:27:44;;;;;;;5.37;2.80;;;16.80;59.50;;;;;;2594857;52;22147;-69
2021/08/26 06:30:11;;;;;;;5.12;2.62;;;16.80;59.50;;;;;;2444923;52;21987;-67
2021/08/26 06:32:37;;;;;;;5.57;2.42;;;16.90;59.60;;;;;;2355114;53;20966;-70
2021/08/26 06:35:06;;;;;;;4.65;2.55;;;17.00;59.60;;;;;;2354417;53;20930;-69
2021/08/26 06:37:32;;;;;;;4.93;2.62;;;17.10;59.70;;;;;;2354886;53;21055;-67
2021/08/26 06:39:59;;;;;;;5.70;2.50;;;17.20;59.70;;;;;;2346266;53;20974;-67
2021/08/26 06:42:25;;;;;;;5.80;2.75;;;17.30;59.80;;;;;;2336980;53;21039;-68
2021/08/26 06:44:51;;;;;;;7.00;3.50;;;17.40;59.70;;;;;;2355961;53;20986;-70
2021/08/26 06:47:18;;;;;;;4.53;2.50;;;17.50;59.70;;;;;;2342908;53;20967;-67
2021/08/26 06:49:45;;;;;;;5.95;2.95;;;17.60;59.70;;;;;;2340185;53;21010;-67
2021/08/26 06:52:11;;;;;;;5.05;2.42;;;17.60;59.70;;;;;;2337140;53;21409;-67
2021/08/26 06:54:38;;;;;;;5.68;3.00;;;17.70;59.70;;;;;;2413009;52;21517;-66
2021/08/26 06:57:06;;;;;;;5.15;2.75;;;17.70;59.80;;;;;;2355885;53;20962;-67
2021/08/26 06:59:33;;;;;;;4.82;2.70;;;17.80;60.00;;;;;;2331953;54;21572;-68
2021/08/26 07:01:59;;;;;;;5.35;2.87;;;17.90;60.20;;;;;;2356385;53;20999;-68
2021/08/26 07:04:26;;;;;;;7.78;3.42;;;18.10;60.40;;;;;;2345594;53;21327;-69
2021/08/26 07:06:53;;;;;;;4.72;2.90;;;18.20;60.50;;;;;;2325481;53;20933;-67
2021/08/26 07:09:20;;;;;;;5.22;3.00;;;18.30;60.40;;;;;;2346002;53;20934;-67
2021/08/26 07:11:46;;;;;;;6.82;3.47;;;18.40;60.20;;;;;;2357919;53;21009;-69
2021/08/26 07:14:14;;;;;;;5.18;3.20;;;18.60;60.20;;;;;;2363729;53;20927;-68
2021/08/26 07:16:40;;;;;;;6.25;3.42;;;18.70;60.20;;;;;;2340341;53;20934;-69
2021/08/26 07:19:06;;;;;;;5.55;3.58;;;18.80;60.20;;;;;;2342663;53;21991;-71
2021/08/26 07:21:33;;;;;;;7.50;3.55;;;18.90;60.20;;;;;;2347306;53;20923;-67
2021/08/26 07:23:59;;;;;;;6.45;3.53;;;19.00;60.00;;;;;;2341005;53;20921;-68
2021/08/26 07:26:25;;;;;;;5.62;3.42;;;19.10;59.80;;;;;;2355391;53;20938;-70
2021/08/26 07:28:53;;;;;;;6.45;3.42;;;19.20;59.50;;;;;;2355066;53;21437;-68
2021/08/26 07:31:19;;;;;;;8.43;3.50;;;19.30;59.30;;;;;;2355936;53;20950;-71
2021/08/26 07:33:45;;;;;;;6.22;3.50;;;19.30;59.10;;;;;;2355656;53;20923;-70
2021/08/26 07:36:11;;;;;;;7.05;3.50;;;19.40;59.00;;;;;;2354517;53;21006;-70
2021/08/26 07:38:38;;;;;;;5.68;3.55;;;19.40;58.90;;;;;;2355485;53;20927;-68
2021/08/26 07:41:04;;;;;;;5.68;3.00;;;19.40;58.70;;;;;;2346402;53;20971;-70
2021/08/26 07:43:33;;;;;;;5.80;3.15;;;19.40;58.70;;;;;;2341515;53;21756;-68
2021/08/26 07:46:00;;;;;;;5.45;3.10;;;19.40;58.70;;;;;;2355895;53;20906;-69
2021/08/26 07:48:27;;;;;;;5.75;3.17;;;19.50;58.90;;;;;;2547305;52;20994;-69
2021/08/26 07:50:56;;;;;;;4.95;2.97;;;19.50;58.90;;;;;;2355885;53;20954;-69
2021/08/26 07:53:23;;;;;;;5.72;3.37;;;19.50;58.90;;;;;;2355054;53;21489;-69
2021/08/26 07:55:49;;;;;;;6.05;3.70;;;19.50;58.90;;;;;;2336776;53;21462;-67
2021/08/26 07:58:15;;;;;;;6.10;3.78;;;19.60;58.90;;;;;;2430908;52;21081;-69
2021/08/26 08:00:42;;;;;;;6.70;3.78;;;19.60;58.80;;;;;;2350985;53;20938;-68
2021/08/26 08:03:08;;;;;;;5.40;3.10;;;19.70;58.90;;;;;;2524548;53;20943;-68
2021/08/26 08:05:37;;;;;;;6.50;3.80;;;19.70;58.90;;;;;;2347427;53;22065;-68
2021/08/26 08:08:04;;;;;;;6.30;3.92;;;19.80;59.00;;;;;;2331169;53;20981;-70
2021/08/26 08:10:31;;;;;;;6.22;3.45;;;19.90;58.90;;;;;;2346294;53;21800;-66
2021/08/26 08:12:57;;;;;;;6.55;4.22;;;19.90;58.90;;;;;;2373205;52;20994;-67
2021/08/26 08:15:24;;;;;;;5.40;3.33;;;20.00;58.90;;;;;;2355916;53;20941;-67
2021/08/26 08:17:50;;;;;;;5.97;3.40;;;20.10;59.00;;;;;;2540565;52;20942;-69
2021/08/26 08:20:17;;;;;;;6.68;3.80;;;20.20;59.20;;;;;;2607188;52;20939;-68
2021/08/26 08:22:43;;;;;;;6.18;4.00;;;20.20;59.10;;;;;;2356150;53;20930;-69
2021/08/26 08:25:10;;;;;;;7.65;4.07;;;20.40;59.30;;;;;;2337803;53;21044;-68
2021/08/26 08:27:38;;;;;;;5.70;3.40;;;20.50;59.10;;;;;;2340345;53;20911;-68
2021/08/26 08:30:05;;;;;;;5.55;3.28;;;20.60;59.00;;;;;;2330742;53;21012;-68
2021/08/26 08:32:31;;;;;;;6.10;2.97;;;20.70;59.00;;;;;;2354558;53;20998;-71
2021/08/26 08:34:58;;;;;;;5.15;2.95;;;20.80;58.90;;;;;;2355702;53;21339;-68
2021/08/26 08:37:24;;;;;;;6.45;3.67;;;21.00;58.80;;;;;;2444872;52;20966;-71
2021/08/26 08:39:56;;;;;;;6.97;3.92;;;21.10;58.50;;;;;;2338519;53;21310;-69
2021/08/26 08:42:23;;;;;;;5.18;3.03;;;21.20;57.90;;;;;;2345324;53;21895;-68
2021/08/26 08:44:50;;;;;;;4.43;2.42;;;21.20;57.80;;;;;;2526947;53;22003;-71
2021/08/26 08:47:17;;;;;;;6.57;3.40;;;21.30;57.80;;;;;;2361004;53;20946;-67
2021/08/26 08:49:45;;;;;;;6.55;3.50;;;21.40;57.70;;;;;;2329356;54;20973;-70
2021/08/26 08:52:11;;;;;;;7.80;3.95;;;21.40;57.40;;;;;;2328830;54;20929;-72
2021/08/26 08:54:38;;;;;;;5.10;3.08;;;21.50;57.20;;;;;;2503449;52;21628;-67
2021/08/26 08:57:04;;;;;;;4.25;2.53;;;21.50;57.10;;;;;;2338976;53;20958;-69
2021/08/26 08:59:32;;;;;;;5.25;3.15;;;21.60;57.10;;;;;;2327800;53;20941;-70
2021/08/26 09:01:59;;;;;;;6.18;3.40;;;21.60;56.90;;;;;;2357079;53;20923;-68
2021/08/26 09:04:25;;;;;;;5.85;3.45;;;21.60;56.80;;;;;;2359813;53;20923;-69
2021/08/26 09:06:52;;;;;;;5.37;3.00;;;21.70;56.70;;;;;;2360008;53;20946;-69
2021/08/26 09:09:20;;;;;;;6.20;3.58;;;21.70;56.70;;;;;;2359744;53;20970;-69
2021/08/26 09:11:52;;;;;;;5.82;3.67;;;21.70;56.60;;;;;;2328268;53;20897;-71
2021/08/26 09:14:18;;;;;;;6.18;3.47;;;21.70;56.40;;;;;;2329175;53;20955;-70
2021/08/26 09:16:52;;;;;;;4.97;3.03;;;21.80;56.50;;;;;;2345000;53;21034;-68
2021/08/26 09:19:29;;;;;;;5.43;3.45;;;21.80;56.50;;;;;;2359946;53;20950;-71
2021/08/26 09:22:03;;;;;;;6.47;3.47;;;21.80;56.40;;;;;;2611367;52;21002;-68
2021/08/26 09:28:04;;;;;;;7.30;3.53;;;21.90;56.50;;;;;;2360731;53;20973;-69
2021/08/26 09:30:30;;;;;;;4.50;2.78;;;22.00;56.40;;;;;;2361553;53;21881;-70
2021/08/26 09:32:58;;;;;;;5.30;3.12;;;22.00;56.30;;;;;;2360946;53;21374;-68
2021/08/26 09:35:29;;;;;;;5.00;2.75;;;22.10;56.20;;;;;;2342455;53;20963;-68
2021/08/26 09:38:00;;;;;;;6.85;4.03;;;22.10;56.00;;;;;;2392643;52;20930;-70
2021/08/26 09:40:28;;;;;;;5.97;3.85;;;22.10;56.10;;;;;;2360752;53;20966;-68
2021/08/26 09:43:04;;;;;;;8.60;4.20;;;22.20;56.00;;;;;;2360380;53;20931;-68
2021/08/26 09:45:36;;;;;;;7.03;4.03;;;22.20;55.90;;;;;;2344997;53;21929;-70
2021/08/26 09:48:13;;;;;;;6.15;4.00;;;22.20;55.80;;;;;;2340983;53;20971;-69
2021/08/26 09:50:42;;;;;;;5.28;3.60;;;22.20;55.60;;;;;;2344407;53;21536;-69
2021/08/26 09:53:08;;;;;;;7.62;4.15;;;22.20;55.60;;;;;;2612515;52;20946;-68
2021/08/26 09:55:54;;;;;;;7.05;4.40;;;22.20;55.50;;;;;;2360591;53;20926;-69
2021/08/26 09:58:22;;;;;;;5.87;3.12;;;22.20;55.20;;;;;;2346465;53;21963;-69
2021/08/26 10:00:48;;;;;;;5.18;3.50;;;22.20;55.40;;;;;;2332951;53;21027;-70
2021/08/26 10:03:16;;;;;;;7.25;3.90;;;22.20;55.40;;;;;;2336637;53;21052;-71
2021/08/26 10:05:43;;;;;;;6.15;3.90;;;22.10;55.30;;;;;;2356122;53;21074;-70
2021/08/26 10:08:10;;;;;;;6.55;3.85;;;22.10;55.20;;;;;;2362409;53;20931;-69
2021/08/26 10:10:40;;;;;;;6.07;3.55;;;22.10;55.10;;;;;;2336685;53;20985;-70
2021/08/26 10:13:07;;;;;;;5.50;3.28;;;22.00;55.10;;;;;;2353760;53;20986;-68
2021/08/26 10:15:35;;;;;;;5.05;3.15;;;22.00;55.10;;;;;;2344786;53;22016;-69
2021/08/26 10:18:01;;;;;;;5.90;3.35;;;21.90;55.10;;;;;;2353557;53;21970;-71
2021/08/26 10:20:27;;;;;;;5.40;2.87;;;21.90;55.10;;;;;;2410931;52;21913;-68
2021/08/26 10:22:53;;;;;;;4.85;3.15;;;21.80;55.00;;;;;;2361150;53;20958;-69
2021/08/26 10:25:20;;;;;;;6.68;2.90;;;21.80;55.00;;;;;;2361189;53;20939;-68
2021/08/26 10:27:46;;;;;;;5.53;3.12;;;21.60;54.80;;;;;;2361494;53;20923;-68
2021/08/26 10:30:39;;;;;;;4.10;2.42;;;21.60;54.90;;;;;;2361176;53;21030;-67
2021/08/26 10:33:30;;;;;;;4.80;2.55;;;21.40;55.00;;;;;;2361802;53;20935;-67
2021/08/26 10:36:01;;;;;;;4.40;2.65;;;21.40;55.10;;;;;;2361857;52;20910;-71
2021/08/26 10:38:32;;;;;;;5.12;2.40;;;21.20;55.20;;;;;;2360913;53;20934;-69
2021/08/26 10:41:26;;;;;;;4.50;2.50;;;21.10;55.40;;;;;;2337163;54;20943;-70
2021/08/26 10:44:06;;;;;;;4.78;2.40;;;21.00;55.40;;;;;;2361572;53;20951;-69
2021/08/26 10:46:52;;;;;;;4.65;2.12;;;20.90;55.50;;;;;;2337908;53;22132;-70
2021/08/26 10:49:19;;;;;;;3.65;1.77;;;20.80;56.20;;;;;;2361425;53;20985;-68
2021/08/26 10:51:52;;;;;;;3.25;1.70;;;20.60;55.90;;;;;;2337861;53;21011;-69
2021/08/26 10:54:32;;;;;;;3.72;1.45;;;20.60;56.40;;;;;;2361205;53;21089;-69
2021/08/26 10:57:28;;;;;;;3.15;1.73;;;20.50;56.70;;;;;;2339825;53;21101;-68
2021/08/26 10:59:54;;;;;;;3.33;1.30;;;20.40;57.20;;;;;;2356262;52;22021;-70
2021/08/26 11:02:40;;;;;;;2.60;1.10;;;20.30;56.70;;;;;;2464742;53;22200;-67
2021/08/26 11:05:34;;;;;;;3.15;1.55;;;20.20;57.40;;;;;;2359271;53;20938;-68
2021/08/26 11:08:01;;;;;;;2.97;1.33;;;20.10;57.60;;;;;;2353070;53;20978;-67
2021/08/26 11:10:30;;;;;;;2.28;1.00;;;20.00;57.70;;;;;;2338731;53;21868;-67
2021/08/26 11:16:37;;;;;;;2.55;1.20;;;20.00;57.60;;;;;;2345364;53;21440;-69
2021/08/26 11:20:24;;;;;;;2.35;1.00;;;19.90;57.80;;;;;;2339941;53;20955;-68
2021/08/26 11:23:04;;;;;;;2.37;0.97;;;19.80;58.20;;;;;;2332962;53;1325957;-70
2021/08/26 11:25:31;;;;;;;2.58;1.30;;;19.80;58.20;;;;;;2429742;53;20934;-70
2021/08/26 11:28:31;;;;;;;2.35;0.98;;;19.70;57.90;;;;;;2329229;53;21989;-68
2021/08/26 11:31:13;;;;;;;2.28;0.98;;;19.70;58.70;;;;;;2497136;53;21095;-67
2021/08/26 11:33:40;;;;;;;2.03;1.00;;;19.60;59.40;;;;;;2338723;54;21533;-70
2021/08/26 11:36:13;;;;;;;2.78;1.42;;;19.60;58.40;;;;;;2308960;53;21885;-67
2021/08/26 11:38:44;;;;;;;2.97;1.25;;;19.50;58.90;;;;;;2315599;54;21917;-67
2021/08/26 11:41:11;;;;;;;2.20;1.02;;;19.50;58.80;;;;;;2326605;54;20930;-68
2021/08/26 11:43:42;;;;;;;2.28;0.95;;;19.50;58.80;;;;;;2359718;53;20970;-68
2021/08/26 11:46:12;;;;;;;2.30;1.05;;;19.50;59.00;;;;;;2332224;53;21000;-70
2021/08/26 11:49:12;;;;;;;2.30;1.02;;;19.50;59.10;;;;;;2431092;53;21435;-68
2021/08/26 11:51:38;;;;;;;2.33;1.02;;;19.50;59.90;;;;;;2361070;53;21862;-68
2021/08/26 11:54:13;;;;;;;2.20;0.95;;;19.50;59.20;;;;;;2360292;53;21005;-72
2021/08/26 11:57:19;;;;;;;2.60;1.15;;;19.40;59.40;;;;;;2360951;53;20954;-69
2021/08/26 11:59:45;;;;;;;2.17;1.02;;;19.50;60.40;;;;;;2341502;53;20935;-68
2021/08/26 12:02:25;;;;;;;2.30;1.02;;;19.40;59.50;;;;;;2347757;53;20926;-71
2021/08/26 12:04:58;;;;;;;2.95;1.50;;;19.40;60.00;;;;;;2360593;53;21452;-68
2021/08/26 12:07:29;;;;;;;2.45;1.35;;;19.40;60.00;;;;;;2348411;53;20954;-71
2021/08/26 12:09:57;;;;;;;2.65;1.27;;;19.40;59.80;;;;;;2349903;53;20946;-70
2021/08/26 12:12:23;;;;;;;2.58;1.10;;;19.40;60.00;;;;;;2355858;53;21035;-67
2021/08/26 12:14:50;;;;;;;3.00;1.10;;;19.40;60.20;;;;;;2581035;52;20995;-70
2021/08/26 12:17:17;;;;;;;1.98;0.95;;;19.30;60.40;;;;;;2340713;53;20966;-73
2021/08/26 12:19:44;;;;;;;2.10;1.08;;;19.30;60.80;;;;;;2337556;54;21041;-68
2021/08/26 12:22:17;;;;;;;2.08;0.95;;;19.40;61.00;;;;;;2358874;53;20975;-70
2021/08/26 12:25:00;;;;;;;2.37;0.98;;;19.40;61.50;;;;;;2319929;54;22051;-70
2021/08/26 12:27:30;;;;;;;2.00;0.80;;;19.40;61.90;;;;;;2360636;53;20990;-70
2021/08/26 12:29:58;;;;;;;1.25;0.57;;;19.50;61.50;;;;;;2369368;52;20942;-70
2021/08/26 12:32:45;;;;;;;1.90;0.80;;;19.50;61.50;;;;;;2363996;53;20922;-69
2021/08/26 12:35:22;;;;;;;1.73;0.80;;;19.60;62.60;;;;;;2338535;53;21034;-72
2021/08/26 12:38:09;;;;;;;1.40;0.60;;;19.60;61.90;;;;;;2335549;53;21071;-68
2021/08/26 12:40:53;;;;;;;1.35;0.60;;;19.70;62.90;;;;;;2361252;53;21010;-72
2021/08/26 12:43:20;;;;;;;0.95;0.40;;;19.70;62.40;;;;;;2360314;53;21069;-70
2021/08/26 12:45:46;;;;;;;0.90;0.40;;;19.70;61.90;;;;;;2337290;53;20966;-71
2021/08/26 12:48:27;;;;;;;1.15;0.55;;;19.80;62.10;;;;;;2399867;52;20966;-71
2021/08/26 12:51:16;;;;;;;2.25;0.60;;;19.80;62.50;;;;;;2348727;53;20989;-70
2021/08/26 12:53:46;;;;;;;0.88;0.40;;;19.90;62.50;;;;;;2343027;53;22060;-68
2021/08/26 12:56:15;;;;;;;1.45;0.65;;;19.90;61.90;;;;;;2375517;53;21097;-68
2021/08/26 12:58:55;;;;;;;0.98;0.37;;;19.90;62.00;;;;;;2346191;53;20954;-73
2021/08/26 13:01:23;;;;;;;0.93;0.43;;;20.00;62.80;;;;;;2357998;53;20954;-68
2021/08/26 13:03:54;;;;;;;1.30;0.57;;;20.00;62.40;;;;;;2361632;53;20926;-69
2021/08/26 13:06:37;;;;;;;1.20;0.52;;;20.10;62.60;;;;;;2578701;52;20970;-68
2021/08/26 13:09:07;;;;;;;1.65;0.60;;;20.10;62.50;;;;;;2577285;52;21033;-71
2021/08/26 13:11:38;;;;;;;1.60;0.60;;;20.10;61.60;;;;;;2357235;53;20962;-68